sensor_id;sensor_type;location;lat;lon;timestamp;pressure;altitude;pressure_sealevel;temperature;humidity
56992;BME280;42885;49.754;18.636;2022-12-01T00:02:22;99255.50;;;3.17;100.00
56992;BME280;42885;49.754;18.636;2022-12-01T00:05:10;99247.93;;;3.34;100.00
56992;BME280;42885;49.754;18.636;2022-12-01T00:08:00;99254.14;;;3.22;100.00
56992;BME280;42885;49.754;18.636;2022-12-01T00:10:52;99246.70;;;3.30;100.00
56992;BME280;42885;49.754;18.636;2022-12-01T00:13:42;99252.96;;;3.43;100.00
56992;BME280;42885;49.754;18.636;2022-12-01T00:16:32;99242.59;;;3.44;100.00
56992;BME280;42885;49.754;18.636;2022-12-01T00:19:25;99244.78;;;3.42;100.00
56992;BME280;42885;49.754;18.636;2022-12-01T00:22:15;99246.97;;;3.41;100.00
56992;BME280;42885;49.754;18.636;2022-12-01T00:25:04;99245.21;;;3.14;100.00
56992;BME280;42885;49.754;18.636;2022-12-01T00:27:54;99244.34;;;3.13;100.00
56992;BME280;42885;49.754;18.636;2022-12-01T00:30:42;99238.77;;;3.11;100.00
56992;BME280;42885;49.754;18.636;2022-12-01T00:33:32;99242.70;;;3.08;100.00
56992;BME280;42885;49.754;18.636;2022-12-01T00:36:22;99241.33;;;2.82;100.00
56992;BME280;42885;49.754;18.636;2022-12-01T00:39:11;99243.92;;;2.82;100.00
56992;BME280;42885;49.754;18.636;2022-12-01T00:42:01;99239.09;;;2.89;100.00
56992;BME280;42885;49.754;18.636;2022-12-01T00:44:51;99246.97;;;2.80;100.00
56992;BME280;42885;49.754;18.636;2022-12-01T00:47:41;99243.66;;;3.00;100.00
56992;BME280;42885;49.754;18.636;2022-12-01T00:50:31;99243.45;;;3.16;100.00
56992;BME280;42885;49.754;18.636;2022-12-01T00:53:22;99247.88;;;3.08;100.00
56992;BME280;42885;49.754;18.636;2022-12-01T00:56:12;99243.77;;;3.25;100.00
56992;BME280;42885;49.754;18.636;2022-12-01T00:59:01;99236.09;;;3.19;100.00
56992;BME280;42885;49.754;18.636;2022-12-01T01:01:51;99235.62;;;3.19;100.00
56992;BME280;42885;49.754;18.636;2022-12-01T01:04:41;99235.83;;;3.07;100.00
56992;BME280;42885;49.754;18.636;2022-12-01T01:07:30;99230.50;;;2.87;100.00
56992;BME280;42885;49.754;18.636;2022-12-01T01:10:20;99238.53;;;2.99;100.00
56992;BME280;42885;49.754;18.636;2022-12-01T01:13:11;99230.66;;;3.05;100.00
56992;BME280;42885;49.754;18.636;2022-12-01T01:16:03;99226.44;;;2.99;100.00
56992;BME280;42885;49.754;18.636;2022-12-01T01:18:53;99224.88;;;3.18;100.00
56992;BME280;42885;49.754;18.636;2022-12-01T01:21:44;99220.09;;;3.21;100.00
56992;BME280;42885;49.754;18.636;2022-12-01T01:24:33;99217.70;;;3.08;100.00
56992;BME280;42885;49.754;18.636;2022-12-01T01:27:22;99219.33;;;3.15;100.00
56992;BME280;42885;49.754;18.636;2022-12-01T01:30:12;99217.78;;;3.31;100.00
56992;BME280;42885;49.754;18.636;2022-12-01T01:33:01;99220.77;;;3.34;100.00
56992;BME280;42885;49.754;18.636;2022-12-01T01:35:50;99210.83;;;3.07;100.00
56992;BME280;42885;49.754;18.636;2022-12-01T01:38:39;99212.95;;;2.79;100.00
56992;BME280;42885;49.754;18.636;2022-12-01T01:41:29;99210.94;;;2.98;100.00
56992;BME280;42885;49.754;18.636;2022-12-01T01:44:53;99210.70;;;3.15;100.00
56992;BME280;42885;49.754;18.636;2022-12-01T01:47:43;99206.30;;;2.91;100.00
56992;BME280;42885;49.754;18.636;2022-12-01T01:50:33;99195.41;;;2.99;100.00
56992;BME280;42885;49.754;18.636;2022-12-01T01:53:23;99190.63;;;3.03;100.00
56992;BME280;42885;49.754;18.636;2022-12-01T01:56:11;99188.12;;;2.97;100.00
56992;BME280;42885;49.754;18.636;2022-12-01T01:59:01;99188.84;;;3.07;100.00
56992;BME280;42885;49.754;18.636;2022-12-01T02:01:59;99187.02;;;3.12;100.00
56992;BME280;42885;49.754;18.636;2022-12-01T02:04:49;99187.02;;;3.12;100.00
56992;BME280;42885;49.754;18.636;2022-12-01T02:07:39;99192.95;;;2.92;100.00
56992;BME280;42885;49.754;18.636;2022-12-01T02:17:21;99187.48;;;3.12;100.00
56992;BME280;42885;49.754;18.636;2022-12-01T02:33:02;99169.48;;;3.57;100.00
56992;BME280;42885;49.754;18.636;2022-12-01T02:39:25;99179.25;;;3.14;100.00
56992;BME280;42885;49.754;18.636;2022-12-01T02:42:19;99168.99;;;3.08;100.00
56992;BME280;42885;49.754;18.636;2022-12-01T02:45:09;99182.33;;;3.09;100.00
56992;BME280;42885;49.754;18.636;2022-12-01T02:48:01;99174.23;;;3.03;100.00
56992;BME280;42885;49.754;18.636;2022-12-01T02:50:51;99176.83;;;3.01;100.00
56992;BME280;42885;49.754;18.636;2022-12-01T02:53:42;99177.02;;;3.18;100.00
56992;BME280;42885;49.754;18.636;2022-12-01T02:56:31;99178.91;;;3.08;100.00
56992;BME280;42885;49.754;18.636;2022-12-01T02:59:21;99179.08;;;2.96;100.00
56992;BME280;42885;49.754;18.636;2022-12-01T03:05:23;99164.13;;;3.16;100.00
56992;BME280;42885;49.754;18.636;2022-12-01T03:11:17;99160.58;;;3.22;100.00
56992;BME280;42885;49.754;18.636;2022-12-01T03:17:19;99144.44;;;3.34;100.00
56992;BME280;42885;49.754;18.636;2022-12-01T03:20:12;99131.02;;;3.36;100.00
56992;BME280;42885;49.754;18.636;2022-12-01T03:23:12;99136.91;;;3.20;100.00
56992;BME280;42885;49.754;18.636;2022-12-01T03:25:58;99142.46;;;3.24;100.00
56992;BME280;42885;49.754;18.636;2022-12-01T03:28:59;99142.56;;;3.16;100.00
56992;BME280;42885;49.754;18.636;2022-12-01T03:31:46;99141.34;;;3.11;100.00
56992;BME280;42885;49.754;18.636;2022-12-01T03:34:53;99136.08;;;3.18;100.00
56992;BME280;42885;49.754;18.636;2022-12-01T03:38:31;99134.95;;;3.07;100.00
56992;BME280;42885;49.754;18.636;2022-12-01T03:40:35;99132.27;;;3.40;100.00
56992;BME280;42885;49.754;18.636;2022-12-01T03:43:29;99134.03;;;3.63;100.00
56992;BME280;42885;49.754;18.636;2022-12-01T03:47:08;99136.31;;;3.55;100.00
56992;BME280;42885;49.754;18.636;2022-12-01T03:49:10;99137.13;;;3.33;100.00
56992;BME280;42885;49.754;18.636;2022-12-01T03:52:17;99140.28;;;3.51;100.00
56992;BME280;42885;49.754;18.636;2022-12-01T03:55:12;99136.81;;;3.50;100.00
56992;BME280;42885;49.754;18.636;2022-12-01T03:58:11;99130.40;;;3.49;100.00
56992;BME280;42885;49.754;18.636;2022-12-01T04:01:02;99137.14;;;3.32;100.00
56992;BME280;42885;49.754;18.636;2022-12-01T04:03:52;99131.79;;;3.42;100.00
56992;BME280;42885;49.754;18.636;2022-12-01T04:06:45;99125.09;;;3.55;100.00
56992;BME280;42885;49.754;18.636;2022-12-01T04:09:33;99126.94;;;3.48;100.00
56992;BME280;42885;49.754;18.636;2022-12-01T04:12:23;99130.04;;;3.43;100.00
56992;BME280;42885;49.754;18.636;2022-12-01T04:15:19;99135.71;;;3.65;100.00
56992;BME280;42885;49.754;18.636;2022-12-01T04:18:07;99134.85;;;3.40;100.00
56992;BME280;42885;49.754;18.636;2022-12-01T04:20:56;99135.67;;;3.42;100.00
56992;BME280;42885;49.754;18.636;2022-12-01T04:23:45;99140.06;;;3.37;100.00
56992;BME280;42885;49.754;18.636;2022-12-01T04:26:50;99131.95;;;3.57;100.00
56992;BME280;42885;49.754;18.636;2022-12-01T04:29:39;99131.13;;;3.55;100.00
56992;BME280;42885;49.754;18.636;2022-12-01T04:32:28;99127.66;;;3.56;100.00
56992;BME280;42885;49.754;18.636;2022-12-01T04:35:17;99133.12;;;3.39;100.00
56992;BME280;42885;49.754;18.636;2022-12-01T04:38:06;99126.77;;;3.57;100.00
56992;BME280;42885;49.754;18.636;2022-12-01T04:40:55;99124.97;;;3.63;100.00
56992;BME280;42885;49.754;18.636;2022-12-01T04:43:44;99124.45;;;3.42;100.00
56992;BME280;42885;49.754;18.636;2022-12-01T04:46:32;99126.43;;;3.53;100.00
56992;BME280;42885;49.754;18.636;2022-12-01T04:49:21;99131.17;;;3.52;100.00
56992;BME280;42885;49.754;18.636;2022-12-01T04:52:10;99126.96;;;3.47;100.00
56992;BME280;42885;49.754;18.636;2022-12-01T04:54:59;99134.57;;;3.30;100.00
56992;BME280;42885;49.754;18.636;2022-12-01T04:57:49;99129.40;;;3.30;100.00
56992;BME280;42885;49.754;18.636;2022-12-01T05:00:37;99130.74;;;3.53;100.00
56992;BME280;42885;49.754;18.636;2022-12-01T05:03:27;99134.37;;;3.67;100.00
56992;BME280;42885;49.754;18.636;2022-12-01T05:06:19;99147.17;;;3.24;100.00
56992;BME280;42885;49.754;18.636;2022-12-01T05:09:13;99139.06;;;3.46;100.00
56992;BME280;42885;49.754;18.636;2022-12-01T05:12:03;99139.14;;;3.41;100.00
56992;BME280;42885;49.754;18.636;2022-12-01T05:14:53;99142.16;;;3.41;100.00
56992;BME280;42885;49.754;18.636;2022-12-01T05:17:42;99151.31;;;3.35;100.00
56992;BME280;42885;49.754;18.636;2022-12-01T05:20:31;99142.56;;;3.16;100.00
56992;BME280;42885;49.754;18.636;2022-12-01T05:23:39;99136.97;;;3.42;100.00
56992;BME280;42885;49.754;18.636;2022-12-01T05:26:28;99137.45;;;3.39;100.00
56992;BME280;42885;49.754;18.636;2022-12-01T05:29:17;99141.77;;;3.11;100.00
56992;BME280;42885;49.754;18.636;2022-12-01T05:32:07;99134.38;;;3.42;100.00
56992;BME280;42885;49.754;18.636;2022-12-01T05:34:57;99139.89;;;3.22;100.00
56992;BME280;42885;49.754;18.636;2022-12-01T05:37:46;99129.67;;;3.40;100.00
56992;BME280;42885;49.754;18.636;2022-12-01T05:40:35;99134.95;;;3.07;100.00
56992;BME280;42885;49.754;18.636;2022-12-01T05:43:25;99134.66;;;3.25;100.00
56992;BME280;42885;49.754;18.636;2022-12-01T05:46:15;99138.83;;;3.34;100.00
56992;BME280;42885;49.754;18.636;2022-12-01T05:49:05;99129.84;;;3.55;100.00
56992;BME280;42885;49.754;18.636;2022-12-01T05:51:54;99139.50;;;3.18;100.00
56992;BME280;42885;49.754;18.636;2022-12-01T05:54:43;99143.04;;;3.14;100.00
56992;BME280;42885;49.754;18.636;2022-12-01T05:57:33;99143.81;;;2.92;100.00
56992;BME280;42885;49.754;18.636;2022-12-01T06:00:22;99143.04;;;3.14;100.00
56992;BME280;42885;49.754;18.636;2022-12-01T06:03:12;99134.88;;;3.39;100.00
56992;BME280;42885;49.754;18.636;2022-12-01T06:06:02;99141.02;;;3.06;100.00
56992;BME280;42885;49.754;18.636;2022-12-01T06:08:51;99148.67;;;2.83;100.00
56992;BME280;42885;49.754;18.636;2022-12-01T06:11:40;99146.47;;;2.87;100.00
56992;BME280;42885;49.754;18.636;2022-12-01T06:14:29;99149.66;;;3.05;100.00
56992;BME280;42885;49.754;18.636;2022-12-01T06:17:18;99148.08;;;3.22;100.00
56992;BME280;42885;49.754;18.636;2022-12-01T06:20:09;99149.45;;;3.43;100.00
56992;BME280;42885;49.754;18.636;2022-12-01T06:22:58;99144.48;;;3.05;100.00
56992;BME280;42885;49.754;18.636;2022-12-01T06:25:47;99144.11;;;3.26;100.00
56992;BME280;42885;49.754;18.636;2022-12-01T06:28:36;99142.65;;;3.37;100.00
56992;BME280;42885;49.754;18.636;2022-12-01T06:31:26;99144.02;;;3.33;100.00
56992;BME280;42885;49.754;18.636;2022-12-01T06:34:15;99142.29;;;3.59;100.00
56992;BME280;42885;49.754;18.636;2022-12-01T06:37:05;99150.02;;;3.35;100.00
56992;BME280;42885;49.754;18.636;2022-12-01T06:39:54;99147.79;;;3.40;100.00
56992;BME280;42885;49.754;18.636;2022-12-01T06:42:44;99149.64;;;3.58;100.00
56992;BME280;42885;49.754;18.636;2022-12-01T06:45:33;99156.89;;;3.36;100.00
56992;BME280;42885;49.754;18.636;2022-12-01T06:48:24;99155.97;;;3.14;100.00
56992;BME280;42885;49.754;18.636;2022-12-01T06:51:12;99154.44;;;3.00;100.00
56992;BME280;42885;49.754;18.636;2022-12-01T06:54:02;99147.83;;;3.37;100.00
56992;BME280;42885;49.754;18.636;2022-12-01T06:56:51;99160.34;;;3.38;100.00
56992;BME280;42885;49.754;18.636;2022-12-01T06:59:40;99153.53;;;3.32;100.00
56992;BME280;42885;49.754;18.636;2022-12-01T07:02:30;99159.12;;;3.33;100.00
56992;BME280;42885;49.754;18.636;2022-12-01T07:05:19;99166.33;;;3.40;100.00
56992;BME280;42885;49.754;18.636;2022-12-01T07:08:08;99169.27;;;3.44;100.00
56992;BME280;42885;49.754;18.636;2022-12-01T07:11:05;99170.53;;;3.47;100.00
56992;BME280;42885;49.754;18.636;2022-12-01T07:13:58;99164.94;;;3.46;100.00
56992;BME280;42885;49.754;18.636;2022-12-01T07:16:42;99169.95;;;3.29;100.00
56992;BME280;42885;49.754;18.636;2022-12-01T07:19:32;99171.51;;;3.40;100.00
56992;BME280;42885;49.754;18.636;2022-12-01T07:22:20;99179.83;;;3.32;100.00
56992;BME280;42885;49.754;18.636;2022-12-01T07:25:10;99173.21;;;3.41;100.00
56992;BME280;42885;49.754;18.636;2022-12-01T07:27:58;99168.19;;;3.57;100.00
56992;BME280;42885;49.754;18.636;2022-12-01T07:30:47;99176.52;;;3.49;100.00
56992;BME280;42885;49.754;18.636;2022-12-01T07:33:37;99176.67;;;3.66;100.00
56992;BME280;42885;49.754;18.636;2022-12-01T07:36:27;99178.69;;;3.50;100.00
56992;BME280;42885;49.754;18.636;2022-12-01T07:39:17;99177.99;;;3.38;100.00
56992;BME280;42885;49.754;18.636;2022-12-01T07:42:07;99185.42;;;3.58;100.00
56992;BME280;42885;49.754;18.636;2022-12-01T07:44:56;99186.48;;;3.47;100.00
56992;BME280;42885;49.754;18.636;2022-12-01T07:47:45;99179.76;;;3.36;100.00
56992;BME280;42885;49.754;18.636;2022-12-01T07:50:34;99179.20;;;3.69;100.00
56992;BME280;42885;49.754;18.636;2022-12-01T07:53:23;99182.08;;;3.78;100.00
56992;BME280;42885;49.754;18.636;2022-12-01T07:56:13;99186.45;;;3.74;100.00
56992;BME280;42885;49.754;18.636;2022-12-01T07:59:02;99190.66;;;3.55;100.00
56992;BME280;42885;49.754;18.636;2022-12-01T08:01:51;99193.33;;;3.51;100.00
56992;BME280;42885;49.754;18.636;2022-12-01T08:04:42;99193.75;;;3.76;100.00
56992;BME280;42885;49.754;18.636;2022-12-01T08:07:30;99190.66;;;3.80;100.00
56992;BME280;42885;49.754;18.636;2022-12-01T08:10:20;99181.73;;;3.96;100.00
56992;BME280;42885;49.754;18.636;2022-12-01T08:13:09;99185.03;;;4.05;100.00
56992;BME280;42885;49.754;18.636;2022-12-01T08:16:04;99189.48;;;3.98;100.00
56992;BME280;42885;49.754;18.636;2022-12-01T08:18:53;99192.50;;;3.75;100.00
56992;BME280;42885;49.754;18.636;2022-12-01T08:21:43;99189.78;;;4.05;100.00
56992;BME280;42885;49.754;18.636;2022-12-01T08:24:32;99185.36;;;3.88;100.00
56992;BME280;42885;49.754;18.636;2022-12-01T08:27:20;99187.91;;;4.13;100.00
56992;BME280;42885;49.754;18.636;2022-12-01T08:30:10;99189.67;;;4.11;100.00
56992;BME280;42885;49.754;18.636;2022-12-01T08:32:58;99189.12;;;4.17;100.00
56992;BME280;42885;49.754;18.636;2022-12-01T08:35:47;99188.01;;;4.30;100.00
56992;BME280;42885;49.754;18.636;2022-12-01T08:38:36;99194.23;;;4.43;100.00
56992;BME280;42885;49.754;18.636;2022-12-01T08:41:26;99184.89;;;3.90;100.00
56992;BME280;42885;49.754;18.636;2022-12-01T08:44:15;99193.67;;;4.05;100.00
56992;BME280;42885;49.754;18.636;2022-12-01T08:47:05;99187.31;;;4.43;100.00
56992;BME280;42885;49.754;18.636;2022-12-01T08:49:54;99183.20;;;4.11;100.00
56992;BME280;42885;49.754;18.636;2022-12-01T08:52:43;99190.23;;;4.26;100.00
56992;BME280;42885;49.754;18.636;2022-12-01T08:55:33;99182.90;;;4.04;100.00
56992;BME280;42885;49.754;18.636;2022-12-01T08:58:22;99187.19;;;4.05;100.00
56992;BME280;42885;49.754;18.636;2022-12-01T09:01:14;99187.94;;;4.10;100.00
56992;BME280;42885;49.754;18.636;2022-12-01T09:04:03;99187.53;;;4.09;100.00
56992;BME280;42885;49.754;18.636;2022-12-01T09:06:56;99184.02;;;4.13;100.00
56992;BME280;42885;49.754;18.636;2022-12-01T09:09:45;99183.46;;;4.19;100.00
56992;BME280;42885;49.754;18.636;2022-12-01T09:12:35;99183.34;;;4.25;100.00
56992;BME280;42885;49.754;18.636;2022-12-01T09:15:24;99177.94;;;4.37;100.00
56992;BME280;42885;49.754;18.636;2022-12-01T09:18:14;99177.75;;;4.66;100.00
56992;BME280;42885;49.754;18.636;2022-12-01T09:21:20;99175.84;;;4.55;100.00
56992;BME280;42885;49.754;18.636;2022-12-01T09:24:11;99166.08;;;4.66;100.00
56992;BME280;42885;49.754;18.636;2022-12-01T09:27:01;99164.17;;;4.75;100.00
56992;BME280;42885;49.754;18.636;2022-12-01T09:29:49;99160.07;;;4.84;100.00
56992;BME280;42885;49.754;18.636;2022-12-01T09:32:39;99155.34;;;5.02;100.00
56992;BME280;42885;49.754;18.636;2022-12-01T09:35:30;99151.70;;;4.53;100.00
56992;BME280;42885;49.754;18.636;2022-12-01T09:38:19;99156.80;;;4.76;100.00
56992;BME280;42885;49.754;18.636;2022-12-01T09:41:14;99154.52;;;4.62;100.00
56992;BME280;42885;49.754;18.636;2022-12-01T09:44:33;99150.55;;;4.45;100.00
56992;BME280;42885;49.754;18.636;2022-12-01T09:47:27;99152.78;;;4.82;100.00
56992;BME280;42885;49.754;18.636;2022-12-01T09:50:16;99143.53;;;5.08;100.00
56992;BME280;42885;49.754;18.636;2022-12-01T09:53:10;99144.45;;;4.87;100.00
56992;BME280;42885;49.754;18.636;2022-12-01T09:56:01;99134.89;;;5.26;100.00
56992;BME280;42885;49.754;18.636;2022-12-01T09:59:04;99138.74;;;5.45;100.00
56992;BME280;42885;49.754;18.636;2022-12-01T10:01:50;99132.08;;;5.68;100.00
56992;BME280;42885;49.754;18.636;2022-12-01T10:04:41;99128.30;;;5.80;100.00
56992;BME280;42885;49.754;18.636;2022-12-01T10:07:33;99130.46;;;5.47;100.00
56992;BME280;42885;49.754;18.636;2022-12-01T10:10:28;99124.84;;;5.48;100.00
56992;BME280;42885;49.754;18.636;2022-12-01T10:13:23;99128.28;;;5.30;100.00
56992;BME280;42885;49.754;18.636;2022-12-01T10:16:14;99116.92;;;5.53;100.00
56992;BME280;42885;49.754;18.636;2022-12-01T10:20:07;99121.15;;;5.38;100.00
56992;BME280;42885;49.754;18.636;2022-12-01T10:22:36;99126.95;;;5.32;100.00
56992;BME280;42885;49.754;18.636;2022-12-01T10:25:27;99130.19;;;5.23;100.00
56992;BME280;42885;49.754;18.636;2022-12-01T10:31:34;99134.22;;;5.17;100.00
56992;BME280;42885;49.754;18.636;2022-12-01T10:34:36;99127.76;;;5.34;100.00
56992;BME280;42885;49.754;18.636;2022-12-01T10:37:27;99121.59;;;5.21;100.00
56992;BME280;42885;49.754;18.636;2022-12-01T10:40:17;99116.00;;;5.20;100.00
56992;BME280;42885;49.754;18.636;2022-12-01T10:43:08;99111.19;;;5.05;100.00
56992;BME280;42885;49.754;18.636;2022-12-01T10:46:12;99118.97;;;5.05;100.00
56992;BME280;42885;49.754;18.636;2022-12-01T10:48:56;99115.44;;;5.42;100.00
56992;BME280;42885;49.754;18.636;2022-12-01T10:51:59;99115.50;;;5.57;100.00
56992;BME280;42885;49.754;18.636;2022-12-01T10:54:44;99108.64;;;5.55;100.00
56992;BME280;42885;49.754;18.636;2022-12-01T10:57:33;99112.38;;;5.44;100.00
56992;BME280;42885;49.754;18.636;2022-12-01T11:00:31;99106.35;;;5.42;100.00
56992;BME280;42885;49.754;18.636;2022-12-01T11:03:22;99106.04;;;5.38;100.00
56992;BME280;42885;49.754;18.636;2022-12-01T11:06:11;99098.75;;;5.53;100.00
56992;BME280;42885;49.754;18.636;2022-12-01T11:09:06;99104.09;;;5.46;100.00
56992;BME280;42885;49.754;18.636;2022-12-01T11:11:57;99110.25;;;5.42;100.00
56992;BME280;42885;49.754;18.636;2022-12-01T11:14:49;99109.75;;;5.11;100.00
56992;BME280;42885;49.754;18.636;2022-12-01T11:17:41;99112.44;;;5.41;100.00
56992;BME280;42885;49.754;18.636;2022-12-01T11:20:35;99113.21;;;5.45;100.00
56992;BME280;42885;49.754;18.636;2022-12-01T11:23:26;99108.38;;;5.31;100.00
56992;BME280;42885;49.754;18.636;2022-12-01T11:26:25;99108.66;;;5.36;100.00
56992;BME280;42885;49.754;18.636;2022-12-01T11:29:34;99102.27;;;5.67;100.00
56992;BME280;42885;49.754;18.636;2022-12-01T11:32:30;99102.27;;;5.67;100.00
56992;BME280;42885;49.754;18.636;2022-12-01T11:35:23;99102.43;;;5.92;100.00
56992;BME280;42885;49.754;18.636;2022-12-01T11:38:23;99100.61;;;5.64;100.00
56992;BME280;42885;49.754;18.636;2022-12-01T11:41:08;99097.61;;;5.46;100.00
56992;BME280;42885;49.754;18.636;2022-12-01T11:44:01;99099.95;;;5.39;100.00
56992;BME280;42885;49.754;18.636;2022-12-01T11:46:51;99100.74;;;5.24;100.00
56992;BME280;42885;49.754;18.636;2022-12-01T11:49:44;99106.22;;;5.30;100.00
56992;BME280;42885;49.754;18.636;2022-12-01T11:52:35;99098.38;;;5.50;100.00
56992;BME280;42885;49.754;18.636;2022-12-01T11:55:26;99095.91;;;5.62;100.00
56992;BME280;42885;49.754;18.636;2022-12-01T11:58:16;99099.16;;;5.54;100.00
56992;BME280;42885;49.754;18.636;2022-12-01T12:01:23;99094.36;;;5.38;100.00
56992;BME280;42885;49.754;18.636;2022-12-01T12:04:32;99093.97;;;5.19;100.00
56992;BME280;42885;49.754;18.636;2022-12-01T12:10:49;99086.53;;;5.73;100.00
56992;BME280;42885;49.754;18.636;2022-12-01T12:20:18;99098.28;;;5.53;100.00
56992;BME280;42885;49.754;18.636;2022-12-01T12:26:18;99101.63;;;5.58;100.00
56992;BME280;42885;49.754;18.636;2022-12-01T12:29:17;99103.73;;;5.60;100.00
56992;BME280;42885;49.754;18.636;2022-12-01T12:54:06;99088.03;;;5.14;100.00
56992;BME280;42885;49.754;18.636;2022-12-01T12:56:44;99091.20;;;5.08;100.00
56992;BME280;42885;49.754;18.636;2022-12-01T12:59:54;99097.09;;;5.15;100.00
56992;BME280;42885;49.754;18.636;2022-12-01T13:03:12;99097.46;;;5.18;100.00
56992;BME280;42885;49.754;18.636;2022-12-01T13:06:06;99093.98;;;5.52;100.00
56992;BME280;42885;49.754;18.636;2022-12-01T13:09:03;99096.37;;;5.60;100.00
56992;BME280;42885;49.754;18.636;2022-12-01T13:11:55;99099.46;;;5.41;100.00
56992;BME280;42885;49.754;18.636;2022-12-01T13:14:45;99101.03;;;5.63;100.00
56992;BME280;42885;49.754;18.636;2022-12-01T13:17:39;99093.71;;;5.63;100.00
56992;BME280;42885;49.754;18.636;2022-12-01T13:20:29;99092.81;;;5.47;100.00
56992;BME280;42885;49.754;18.636;2022-12-01T13:23:20;99096.93;;;5.56;100.00
56992;BME280;42885;49.754;18.636;2022-12-01T13:26:11;99087.75;;;5.43;100.00
56992;BME280;42885;49.754;18.636;2022-12-01T13:29:03;99090.09;;;5.52;100.00
56992;BME280;42885;49.754;18.636;2022-12-01T13:31:53;99087.78;;;5.41;100.00
56992;BME280;42885;49.754;18.636;2022-12-01T13:34:46;99091.88;;;5.67;100.00
56992;BME280;42885;49.754;18.636;2022-12-01T13:37:36;99086.32;;;5.31;100.00
56992;BME280;42885;49.754;18.636;2022-12-01T13:40:28;99090.25;;;5.46;100.00
56992;BME280;42885;49.754;18.636;2022-12-01T13:43:20;99088.18;;;5.42;100.00
56992;BME280;42885;49.754;18.636;2022-12-01T13:46:25;99087.93;;;5.51;100.00
56992;BME280;42885;49.754;18.636;2022-12-01T13:49:40;99089.97;;;5.57;100.00
56992;BME280;42885;49.754;18.636;2022-12-01T13:52:31;99092.25;;;5.69;100.00
56992;BME280;42885;49.754;18.636;2022-12-01T13:55:24;99099.86;;;5.59;100.00
56992;BME280;42885;49.754;18.636;2022-12-01T14:04:22;99093.86;;;5.40;100.00
56992;BME280;42885;49.754;18.636;2022-12-01T14:09:46;99090.65;;;5.63;100.00
56992;BME280;42885;49.754;18.636;2022-12-01T14:12:20;99093.42;;;5.74;100.00
56992;BME280;42885;49.754;18.636;2022-12-01T14:15:04;99092.44;;;5.61;100.00
56992;BME280;42885;49.754;18.636;2022-12-01T14:17:36;99087.53;;;5.34;100.00
56992;BME280;42885;49.754;18.636;2022-12-01T14:22:47;99091.73;;;5.56;100.00
56992;BME280;42885;49.754;18.636;2022-12-01T14:25:24;99102.83;;;5.45;100.00
56992;BME280;42885;49.754;18.636;2022-12-01T14:28:03;99096.42;;;5.75;100.00
56992;BME280;42885;49.754;18.636;2022-12-01T14:33:52;99100.17;;;5.64;100.00
56992;BME280;42885;49.754;18.636;2022-12-01T14:39:12;99105.15;;;5.56;100.00
56992;BME280;42885;49.754;18.636;2022-12-01T14:41:57;99105.14;;;5.39;100.00
56992;BME280;42885;49.754;18.636;2022-12-01T14:47:22;99095.16;;;6.79;100.00
56992;BME280;42885;49.754;18.636;2022-12-01T14:50:12;99095.04;;;5.61;100.00
56992;BME280;42885;49.754;18.636;2022-12-01T14:55:38;99108.81;;;5.30;100.00
56992;BME280;42885;49.754;18.636;2022-12-01T14:58:17;99101.09;;;5.45;100.00
56992;BME280;42885;49.754;18.636;2022-12-01T15:01:13;99109.41;;;5.42;100.00
56992;BME280;42885;49.754;18.636;2022-12-01T15:03:23;99104.34;;;5.37;100.00
56992;BME280;42885;49.754;18.636;2022-12-01T15:05:55;99103.73;;;5.44;100.00
56992;BME280;42885;49.754;18.636;2022-12-01T15:08:28;99101.27;;;5.21;100.00
56992;BME280;42885;49.754;18.636;2022-12-01T15:11:02;99101.52;;;5.10;100.00
56992;BME280;42885;49.754;18.636;2022-12-01T15:13:51;99100.02;;;5.19;100.00
56992;BME280;42885;49.754;18.636;2022-12-01T15:16:27;99091.64;;;5.59;100.00
56992;BME280;42885;49.754;18.636;2022-12-01T15:18:57;99102.10;;;5.23;100.00
56992;BME280;42885;49.754;18.636;2022-12-01T15:21:30;99099.33;;;5.29;100.00
56992;BME280;42885;49.754;18.636;2022-12-01T15:24:05;99099.77;;;5.12;100.00
56992;BME280;42885;49.754;18.636;2022-12-01T15:26:44;99097.74;;;5.23;100.00
56992;BME280;42885;49.754;18.636;2022-12-01T15:29:18;99089.88;;;5.43;100.00
56992;BME280;42885;49.754;18.636;2022-12-01T15:31:52;99088.12;;;5.10;100.00
56992;BME280;42885;49.754;18.636;2022-12-01T15:34:29;99092.44;;;5.10;100.00
56992;BME280;42885;49.754;18.636;2022-12-01T15:37:02;99095.91;;;5.10;100.00
56992;BME280;42885;49.754;18.636;2022-12-01T15:39:41;99083.05;;;5.06;100.00
56992;BME280;42885;49.754;18.636;2022-12-01T15:42:28;99085.41;;;5.15;100.00
56992;BME280;42885;49.754;18.636;2022-12-01T15:45:17;99090.74;;;5.09;100.00
56992;BME280;42885;49.754;18.636;2022-12-01T15:47:50;99092.56;;;5.05;100.00
56992;BME280;42885;49.754;18.636;2022-12-01T15:50:28;99090.42;;;5.05;100.00
56992;BME280;42885;49.754;18.636;2022-12-01T15:53:22;99091.06;;;4.96;100.00
56992;BME280;42885;49.754;18.636;2022-12-01T15:55:54;99088.47;;;5.15;100.00
56992;BME280;42885;49.754;18.636;2022-12-01T15:58:32;99092.39;;;5.13;100.00
56992;BME280;42885;49.754;18.636;2022-12-01T16:01:14;99092.76;;;4.98;100.00
56992;BME280;42885;49.754;18.636;2022-12-01T16:03:49;99093.71;;;5.12;100.00
56992;BME280;42885;49.754;18.636;2022-12-01T16:06:23;99092.53;;;5.07;100.00
56992;BME280;42885;49.754;18.636;2022-12-01T16:08:55;99094.44;;;5.00;100.00
56992;BME280;42885;49.754;18.636;2022-12-01T16:11:26;99091.79;;;5.70;100.00
56992;BME280;42885;49.754;18.636;2022-12-01T16:14:01;99094.48;;;5.33;100.00
56992;BME280;42885;49.754;18.636;2022-12-01T16:16:44;99097.00;;;5.18;100.00
56992;BME280;42885;49.754;18.636;2022-12-01T16:21:52;99098.93;;;5.10;100.00
56992;BME280;42885;49.754;18.636;2022-12-01T16:24:41;99102.16;;;5.02;100.00